createdAt,value
2019-05-12T00:00:25.366Z,3.00
2019-05-12T00:02:29.330Z,3.00
2019-05-12T00:03:29.292Z,2.60
2019-05-12T00:05:33.409Z,2.90
2019-05-12T00:06:33.290Z,3.30
2019-05-12T00:08:38.109Z,2.80
2019-05-12T00:09:38.819Z,3.00
2019-05-12T00:11:41.417Z,3.00
2019-05-12T00:12:41.326Z,2.80
2019-05-12T00:14:45.377Z,2.70
2019-05-12T00:15:47.542Z,2.80
2019-05-12T00:17:49.471Z,2.80
2019-05-12T00:18:49.362Z,3.00
2019-05-12T00:20:42.418Z,3.00
2019-05-12T00:21:42.313Z,3.20
2019-05-12T00:23:47.641Z,3.20
2019-05-12T00:24:47.910Z,2.80
2019-05-12T00:26:50.367Z,3.00
2019-05-12T00:27:50.411Z,2.90
2019-05-12T00:29:54.459Z,3.00
2019-05-12T00:30:54.361Z,3.10
2019-05-12T00:32:58.475Z,3.10
2019-05-12T00:33:58.765Z,3.30
2019-05-12T00:36:02.487Z,3.10
2019-05-12T00:37:02.382Z,3.20
2019-05-12T00:39:08.605Z,3.20
2019-05-12T00:40:08.207Z,3.60
2019-05-12T00:42:10.537Z,3.40
2019-05-12T00:43:10.418Z,3.30
2019-05-12T00:45:14.469Z,3.20
2019-05-12T00:46:14.431Z,3.40
2019-05-12T00:48:18.658Z,3.20
2019-05-12T00:49:18.773Z,3.40
2019-05-12T00:51:22.568Z,3.30
2019-05-12T00:52:22.459Z,3.40
2019-05-12T00:54:28.453Z,3.20
2019-05-12T00:55:28.615Z,3.30
2019-05-12T00:57:30.530Z,3.20
2019-05-12T00:58:30.556Z,3.00
2019-05-12T01:00:23.664Z,3.10
2019-05-12T01:01:23.618Z,3.10
2019-05-12T01:03:28.035Z,3.30
2019-05-12T01:04:29.092Z,3.10
2019-05-12T01:06:31.505Z,3.30
2019-05-12T01:07:31.480Z,3.50
2019-05-12T01:09:35.531Z,3.00
2019-05-12T01:10:35.669Z,3.50
2019-05-12T01:12:39.707Z,8.50
2019-05-12T01:13:39.506Z,3.20
2019-05-12T01:15:43.559Z,3.40
2019-05-12T01:16:43.689Z,3.20
2019-05-12T01:18:48.070Z,3.40
2019-05-12T01:19:48.568Z,3.30
2019-05-12T01:21:51.756Z,3.40
2019-05-12T01:22:51.536Z,3.10
2019-05-12T01:24:57.724Z,3.40
2019-05-12T01:25:58.290Z,3.50
2019-05-12T01:27:59.608Z,3.60
2019-05-12T01:28:59.576Z,3.30
2019-05-12T01:30:52.739Z,3.40
2019-05-12T01:31:52.538Z,3.50
2019-05-12T01:33:58.564Z,3.30
2019-05-12T01:34:57.758Z,3.60
2019-05-12T01:37:00.780Z,3.40
2019-05-12T01:38:01.537Z,3.40
2019-05-12T01:40:04.798Z,3.50
2019-05-12T01:41:04.576Z,3.40
2019-05-12T01:43:09.062Z,3.30
2019-05-12T01:44:09.048Z,3.70
2019-05-12T01:46:12.916Z,3.70
2019-05-12T01:47:12.717Z,3.70
2019-05-12T01:49:18.734Z,3.70
2019-05-12T01:50:17.774Z,3.80
2019-05-12T01:52:20.960Z,3.90
2019-05-12T01:53:20.739Z,3.90
2019-05-12T01:55:24.958Z,3.80
2019-05-12T01:56:24.760Z,3.80
2019-05-12T01:58:28.876Z,4.00
2019-05-12T01:59:28.820Z,3.80
2019-05-12T02:01:32.889Z,3.90
2019-05-12T02:02:32.779Z,3.70
2019-05-12T02:04:38.040Z,4.10
2019-05-12T02:05:38.075Z,4.00
2019-05-12T02:07:40.918Z,4.10
2019-05-12T02:08:40.809Z,3.90
2019-05-12T02:10:33.709Z,4.20
2019-05-12T02:11:33.679Z,3.80
2019-05-12T02:13:38.096Z,4.00
2019-05-12T02:14:38.176Z,3.60
2019-05-12T02:16:41.714Z,4.30
2019-05-12T02:17:41.601Z,3.90
2019-05-12T02:19:47.959Z,4.30
2019-05-12T02:20:45.508Z,4.40
2019-05-12T02:22:49.637Z,4.50
2019-05-12T02:23:49.538Z,3.80
2019-05-12T02:25:53.646Z,3.90
2019-05-12T02:26:53.548Z,4.10
2019-05-12T02:28:58.585Z,4.00
2019-05-12T02:29:58.593Z,4.20
2019-05-12T02:32:01.722Z,4.10
2019-05-12T02:33:04.982Z,4.50
2019-05-12T02:35:06.060Z,4.10
2019-05-12T02:36:05.679Z,4.30
2019-05-12T02:38:09.738Z,4.30
2019-05-12T02:39:09.770Z,4.00
2019-05-12T02:41:15.504Z,4.20
2019-05-12T02:42:15.587Z,4.30
2019-05-12T02:44:17.849Z,4.30
2019-05-12T02:45:17.729Z,4.20
2019-05-12T02:47:24.183Z,4.50
2019-05-12T02:48:24.596Z,4.30
2019-05-12T02:50:14.812Z,4.60
2019-05-12T02:51:15.508Z,4.40
2019-05-12T02:53:18.770Z,4.30
2019-05-12T02:54:18.706Z,4.50
2019-05-12T02:56:25.625Z,4.30
2019-05-12T02:57:25.518Z,4.40
2019-05-12T02:59:26.854Z,4.30
2019-05-12T03:00:26.750Z,4.50
2019-05-12T03:02:30.820Z,4.40
2019-05-12T03:03:30.953Z,4.30
2019-05-12T03:05:35.265Z,4.30
2019-05-12T03:06:36.098Z,4.80
2019-05-12T03:08:38.839Z,4.50
2019-05-12T03:09:38.790Z,4.70
2019-05-12T03:11:44.692Z,4.70
2019-05-12T03:12:44.906Z,4.80
2019-05-12T03:14:47.028Z,4.70
2019-05-12T03:15:46.828Z,4.50
2019-05-12T03:17:51.051Z,4.40
2019-05-12T03:18:50.838Z,4.60
2019-05-12T03:20:45.487Z,4.60
2019-05-12T03:21:44.320Z,4.90
2019-05-12T03:23:47.840Z,4.70
2019-05-12T03:25:06.475Z,4.80
2019-05-12T03:26:55.076Z,4.70
2019-05-12T03:27:54.524Z,4.70
2019-05-12T03:29:56.049Z,4.60
2019-05-12T03:30:57.460Z,4.70
2019-05-12T03:33:00.056Z,4.70
2019-05-12T03:34:00.746Z,5.10
2019-05-12T03:36:09.183Z,4.80
2019-05-12T03:37:07.780Z,4.60
2019-05-12T03:39:08.089Z,5.00
2019-05-12T03:40:07.894Z,4.70
2019-05-12T03:42:14.560Z,5.00
2019-05-12T03:43:14.631Z,4.70
2019-05-12T03:45:16.121Z,4.80
2019-05-12T03:46:16.104Z,4.90
2019-05-12T03:48:20.145Z,4.90
2019-05-12T03:49:19.921Z,4.90
2019-05-12T03:51:25.054Z,4.90
2019-05-12T03:52:24.603Z,4.80
2019-05-12T03:54:28.177Z,4.90
2019-05-12T03:55:35.869Z,4.60
2019-05-12T03:57:34.508Z,4.80
2019-05-12T03:58:34.581Z,4.90
2019-05-12T04:00:25.139Z,5.10
2019-05-12T04:01:25.468Z,4.80
2019-05-12T04:03:29.040Z,4.60
2019-05-12T04:04:28.953Z,4.80
2019-05-12T04:06:34.666Z,4.60
2019-05-12T04:07:34.483Z,4.70
2019-05-12T04:09:37.081Z,4.90
2019-05-12T04:10:37.209Z,4.60
2019-05-12T04:12:40.953Z,5.00
2019-05-12T04:13:40.888Z,5.30
2019-05-12T04:15:45.706Z,4.80
2019-05-12T04:16:45.385Z,4.90
2019-05-12T04:18:48.924Z,4.50
2019-05-12T04:19:48.808Z,4.50
2019-05-12T04:21:54.704Z,4.40
2019-05-12T04:22:54.708Z,4.60
2019-05-12T04:24:56.882Z,4.80
2019-05-12T04:26:07.000Z,4.70
2019-05-12T04:28:00.970Z,4.80
2019-05-12T04:29:00.998Z,4.90
2019-05-12T04:30:54.843Z,4.70
2019-05-12T04:31:54.342Z,4.60
2019-05-12T04:33:57.771Z,4.60
2019-05-12T04:34:57.800Z,5.00
2019-05-12T04:37:04.587Z,4.60
2019-05-12T04:40:09.892Z,5.00
2019-05-12T04:41:09.920Z,4.40
2019-05-12T04:43:15.398Z,4.50
2019-05-12T04:44:15.491Z,4.60
2019-05-12T04:46:18.338Z,4.40
2019-05-12T04:47:18.359Z,4.60
2019-05-12T04:49:25.004Z,4.80
2019-05-12T04:50:24.536Z,4.70
2019-05-12T04:52:26.418Z,4.70
2019-05-12T04:53:26.319Z,4.40
2019-05-12T04:55:30.371Z,4.60
2019-05-12T04:56:30.328Z,4.70
2019-05-12T04:58:35.246Z,4.60
2019-05-12T04:59:34.700Z,4.70
2019-05-12T05:01:38.498Z,4.60
2019-05-12T05:02:38.361Z,4.60
2019-05-12T05:04:44.110Z,4.50
2019-05-12T05:05:44.462Z,4.10
2019-05-12T05:07:46.436Z,4.40
2019-05-12T05:08:46.567Z,4.60
2019-05-12T05:10:39.563Z,4.30
2019-05-12T05:11:39.530Z,4.10
2019-05-12T05:13:44.370Z,4.30
2019-05-12T05:14:44.624Z,4.20
2019-05-12T05:16:47.409Z,4.10
2019-05-12T05:17:47.378Z,3.80
2019-05-12T05:19:53.423Z,4.20
2019-05-12T05:20:51.399Z,4.20
2019-05-12T05:21:51.477Z,4.20
2019-05-12T05:22:51.343Z,3.90
2019-05-12T05:23:53.514Z,4.10
2019-05-12T05:24:53.488Z,3.90
2019-05-12T05:25:53.707Z,4.20
2019-05-12T05:26:51.218Z,4.70
2019-05-12T05:27:53.246Z,4.40
2019-05-12T05:28:51.318Z,4.00
2019-05-12T05:29:51.148Z,4.20
2019-05-12T05:30:53.351Z,4.40
2019-05-12T05:31:53.274Z,5.90
2019-05-12T05:32:53.451Z,4.50
2019-05-12T05:33:51.029Z,4.50
2019-05-12T05:34:55.827Z,4.50
2019-05-12T05:35:50.970Z,4.80
2019-05-12T05:36:56.066Z,4.40
2019-05-12T05:37:50.907Z,4.30
2019-05-12T05:38:56.346Z,4.60
2019-05-12T05:39:50.869Z,4.60
2019-05-12T05:40:50.998Z,4.60
2019-05-12T05:41:51.137Z,4.70
2019-05-12T05:42:50.907Z,4.50
2019-05-12T05:43:55.745Z,4.70
2019-05-12T05:44:50.919Z,4.70
2019-05-12T05:45:54.583Z,4.80
2019-05-12T05:46:53.877Z,4.30
2019-05-12T05:47:50.838Z,4.70
2019-05-12T05:48:50.638Z,4.20
2019-05-12T05:49:50.591Z,4.60
2019-05-12T05:50:50.758Z,4.80
2019-05-12T05:51:55.061Z,4.60
2019-05-12T05:52:50.668Z,5.10
2019-05-12T05:53:51.546Z,4.60
2019-05-12T05:54:50.578Z,5.00
2019-05-12T05:55:55.537Z,4.40
2019-05-12T05:56:58.337Z,4.30
2019-05-12T05:57:50.359Z,4.70
2019-05-12T05:58:52.440Z,4.60
2019-05-12T05:59:50.300Z,4.30
2019-05-12T06:00:54.781Z,4.20
2019-05-12T06:01:52.474Z,4.30
2019-05-12T06:02:50.332Z,4.40
2019-05-12T06:03:50.203Z,4.20
2019-05-12T06:04:51.938Z,4.50
2019-05-12T06:05:50.131Z,4.40
2019-05-12T06:06:52.768Z,4.50
2019-05-12T06:07:50.090Z,4.40
2019-05-12T06:08:50.067Z,4.40
2019-05-12T06:09:50.069Z,4.40
2019-05-12T06:10:49.988Z,4.00
2019-05-12T06:11:49.989Z,4.50
2019-05-12T06:12:50.885Z,4.10
2019-05-12T06:13:49.999Z,4.20
2019-05-12T06:14:55.301Z,4.50
2019-05-12T06:15:49.859Z,4.50
2019-05-12T06:16:49.917Z,4.80
2019-05-12T06:17:49.810Z,4.70
2019-05-12T06:18:49.838Z,4.40
2019-05-12T06:19:49.740Z,4.10
2019-05-12T06:20:49.721Z,4.40
2019-05-12T06:21:49.700Z,4.40
2019-05-12T06:22:56.080Z,4.20
2019-05-12T06:23:49.630Z,4.60
2019-05-12T06:24:56.886Z,4.40
2019-05-12T06:25:51.612Z,4.40
2019-05-12T06:26:57.626Z,4.50
2019-05-12T06:27:51.126Z,4.60
2019-05-12T06:28:49.488Z,4.50
2019-05-12T06:29:52.460Z,4.60
2019-05-12T06:30:50.168Z,4.90
2019-05-12T06:31:49.519Z,4.30
2019-05-12T06:32:51.800Z,4.80
2019-05-12T06:33:49.428Z,4.40
2019-05-12T06:34:50.927Z,4.40
2019-05-12T06:35:49.463Z,4.60
2019-05-12T06:36:49.278Z,5.00
2019-05-12T06:37:57.751Z,4.80
2019-05-12T06:38:49.220Z,4.30
2019-05-12T06:39:50.906Z,4.70
2019-05-12T06:40:49.172Z,4.40
2019-05-12T06:41:49.148Z,4.80
2019-05-12T06:42:55.624Z,4.40
2019-05-12T06:43:49.089Z,4.70
2019-05-12T06:44:54.888Z,4.80
2019-05-12T06:45:49.028Z,4.50
2019-05-12T06:46:53.506Z,4.50
2019-05-12T06:47:49.751Z,4.60
2019-05-12T06:48:49.024Z,4.40
2019-05-12T06:49:53.787Z,4.20
2019-05-12T06:50:48.902Z,4.70
2019-05-12T06:51:53.663Z,4.60
2019-05-12T06:52:49.212Z,4.60
2019-05-12T06:53:48.952Z,4.50
2019-05-12T06:54:51.372Z,4.40
2019-05-12T06:55:48.879Z,4.30
2019-05-12T06:56:50.158Z,3.70
2019-05-12T06:57:50.281Z,4.30
2019-05-12T06:58:48.689Z,3.70
2019-05-12T06:59:51.483Z,3.90
2019-05-12T07:00:48.629Z,3.70
2019-05-12T07:01:49.875Z,4.20
2019-05-12T07:02:52.426Z,4.00
2019-05-12T07:03:48.550Z,4.20
2019-05-12T07:04:56.321Z,4.10
2019-05-12T07:05:48.497Z,4.00
2019-05-12T07:06:49.840Z,3.70
2019-05-12T07:07:48.449Z,3.50
2019-05-12T07:09:02.064Z,3.60
2019-05-12T07:09:54.139Z,3.80
2019-05-12T07:10:57.741Z,3.60
2019-05-12T07:11:53.378Z,3.60
2019-05-12T07:13:00.741Z,3.50
2019-05-12T07:14:01.266Z,3.90
2019-05-12T07:14:48.994Z,3.60
2019-05-12T07:15:48.390Z,4.10
2019-05-12T07:16:55.192Z,4.20
2019-05-12T07:17:49.767Z,4.10
2019-05-12T07:18:48.158Z,4.40
2019-05-12T07:19:48.130Z,4.30
2019-05-12T07:20:48.228Z,4.60
2019-05-12T07:21:50.632Z,4.80
2019-05-12T07:22:48.800Z,4.50
2019-05-12T07:23:48.028Z,4.80
2019-05-12T07:24:50.274Z,4.80
2019-05-12T07:25:47.970Z,4.80
2019-05-12T07:26:48.264Z,4.50
2019-05-12T07:27:55.228Z,4.50
2019-05-12T07:28:47.887Z,4.50
2019-05-12T07:29:47.869Z,4.20
2019-05-12T07:30:47.986Z,4.20
2019-05-12T07:31:47.806Z,4.30
2019-05-12T07:32:51.245Z,4.50
2019-05-12T07:33:47.758Z,4.30
2019-05-12T07:34:47.760Z,4.30
2019-05-12T07:35:47.710Z,4.30
2019-05-12T07:36:47.837Z,4.40
2019-05-12T07:37:47.657Z,4.70
2019-05-12T07:38:47.740Z,4.30
2019-05-12T07:39:49.466Z,4.20
2019-05-12T07:40:47.580Z,4.20
2019-05-12T07:41:50.744Z,4.10
2019-05-12T07:42:47.529Z,3.90
2019-05-12T07:43:50.615Z,3.90
2019-05-12T07:44:47.478Z,3.90
2019-05-12T07:45:47.449Z,3.60
2019-05-12T07:46:49.510Z,3.70
2019-05-12T07:47:47.394Z,3.90
2019-05-12T07:48:50.772Z,4.10
2019-05-12T07:49:47.361Z,3.90
2019-05-12T07:50:50.349Z,3.50
2019-05-12T07:51:49.931Z,3.60
2019-05-12T07:52:47.274Z,4.10
2019-05-12T07:53:56.448Z,4.10
2019-05-12T07:54:47.222Z,4.10
2019-05-12T07:55:49.379Z,4.10
2019-05-12T07:56:47.170Z,3.80
2019-05-12T07:57:55.467Z,3.50
2019-05-12T07:58:53.995Z,3.20
2019-05-12T07:59:47.281Z,3.80
2019-05-12T08:00:47.048Z,3.30
2019-05-12T08:01:51.849Z,3.70
2019-05-12T08:02:46.999Z,3.50
2019-05-12T08:03:51.004Z,4.00
2019-05-12T08:04:46.948Z,4.00
2019-05-12T08:05:51.221Z,4.30
2019-05-12T08:06:47.064Z,4.10
2019-05-12T08:07:50.235Z,4.20
2019-05-12T08:08:50.475Z,4.10
2019-05-12T08:09:46.955Z,3.80
2019-05-12T08:10:51.531Z,3.70
2019-05-12T08:11:46.768Z,3.90
2019-05-12T08:12:51.053Z,3.40
2019-05-12T08:13:46.721Z,3.40
2019-05-12T08:14:46.770Z,2.90
2019-05-12T08:15:50.238Z,2.80
2019-05-12T08:16:46.636Z,3.10
2019-05-12T08:17:49.240Z,2.70
2019-05-12T08:18:46.692Z,2.80
2019-05-12T08:19:46.559Z,2.60
2019-05-12T08:20:46.598Z,2.70
2019-05-12T08:21:49.024Z,2.80
2019-05-12T08:22:46.478Z,2.80
2019-05-12T08:23:46.520Z,2.60
2019-05-12T08:24:48.186Z,2.90
2019-05-12T08:25:46.558Z,2.50
2019-05-12T08:26:49.126Z,2.90
2019-05-12T08:27:50.299Z,2.70
2019-05-12T08:28:46.460Z,3.10
2019-05-12T08:29:46.297Z,3.00
2019-05-12T08:30:52.068Z,3.10
2019-05-12T08:31:46.258Z,3.10
2019-05-12T08:32:46.232Z,3.10
2019-05-12T08:33:46.201Z,2.70
2019-05-12T08:34:46.289Z,2.60
2019-05-12T08:35:46.155Z,2.30
2019-05-12T08:36:53.143Z,2.20
2019-05-12T08:37:46.097Z,2.20
2019-05-12T08:38:46.079Z,2.10
2019-05-12T08:39:46.127Z,1.90
2019-05-12T08:40:50.841Z,2.30
2019-05-12T08:41:46.140Z,2.10
2019-05-12T08:42:45.976Z,2.20
2019-05-12T08:43:50.626Z,2.20
2019-05-12T08:44:46.058Z,2.20
2019-05-12T08:45:45.900Z,2.10
2019-05-12T08:46:51.951Z,2.30
2019-05-12T08:47:45.849Z,2.30
2019-05-12T08:48:45.821Z,2.20
2019-05-12T08:49:53.388Z,2.40
2019-05-12T08:50:46.241Z,2.20
2019-05-12T08:51:49.643Z,2.00
2019-05-12T08:52:45.720Z,2.30
2019-05-12T08:53:45.817Z,2.20
2019-05-12T08:54:49.326Z,1.80
2019-05-12T08:55:45.734Z,1.60
2019-05-12T08:56:45.617Z,1.90
2019-05-12T08:57:49.378Z,1.70
2019-05-12T08:58:50.936Z,1.70
2019-05-12T08:59:45.548Z,1.60
2019-05-12T09:00:50.094Z,1.70
2019-05-12T09:01:45.573Z,1.50
2019-05-12T09:02:50.464Z,1.70
2019-05-12T09:03:45.567Z,1.70
2019-05-12T09:04:51.319Z,1.80
2019-05-12T09:05:45.399Z,1.80
2019-05-12T09:06:45.497Z,1.80
2019-05-12T09:07:45.357Z,2.10
2019-05-12T09:08:49.358Z,1.90
2019-05-12T09:09:45.301Z,1.90
2019-05-12T09:10:45.429Z,2.00
2019-05-12T09:11:45.252Z,1.80
2019-05-12T09:12:45.336Z,1.90
2019-05-12T09:13:45.201Z,2.10
2019-05-12T09:14:46.214Z,2.00
2019-05-12T09:15:45.250Z,2.10
2019-05-12T09:16:45.139Z,2.10
2019-05-12T09:17:52.672Z,1.90
2019-05-12T09:18:45.089Z,1.90
2019-05-12T09:19:45.177Z,1.90
2019-05-12T09:20:51.339Z,2.20
2019-05-12T09:21:45.018Z,2.00
2019-05-12T09:22:45.584Z,2.00
2019-05-12T09:23:45.657Z,2.00
2019-05-12T09:24:45.109Z,1.90
2019-05-12T09:25:48.428Z,2.00
2019-05-12T09:26:44.897Z,1.90
2019-05-12T09:27:49.384Z,2.00
2019-05-12T09:28:50.001Z,1.60
2019-05-12T09:29:44.950Z,2.10
2019-05-12T09:30:49.199Z,1.70
2019-05-12T09:31:44.779Z,1.90
2019-05-12T09:32:49.948Z,1.80
2019-05-12T09:33:44.766Z,1.60
2019-05-12T09:34:52.574Z,1.70
2019-05-12T09:35:44.700Z,1.70
2019-05-12T09:36:44.657Z,1.60
2019-05-12T09:37:44.637Z,1.50
2019-05-12T09:38:44.698Z,1.70
2019-05-12T09:39:47.407Z,1.50
2019-05-12T09:40:44.609Z,1.60
2019-05-12T09:41:50.632Z,1.50
2019-05-12T09:42:44.516Z,1.60
2019-05-12T09:43:46.257Z,1.60
2019-05-12T09:44:44.469Z,1.60
2019-05-12T09:45:52.110Z,1.60
2019-05-12T09:46:44.435Z,2.00
2019-05-12T09:47:44.468Z,2.70
2019-05-12T09:48:50.913Z,2.70
2019-05-12T09:49:44.513Z,2.00
2019-05-12T09:50:46.525Z,2.20
2019-05-12T09:51:46.055Z,1.90
2019-05-12T09:52:44.387Z,1.70
2019-05-12T09:53:50.911Z,1.90
2019-05-12T09:54:44.502Z,1.70
2019-05-12T09:55:44.311Z,1.70
2019-05-12T09:56:44.397Z,1.70
2019-05-12T09:57:45.140Z,1.80
2019-05-12T09:58:57.177Z,1.60
2019-05-12T09:59:45.908Z,1.40
2019-05-12T10:00:44.108Z,1.30
2019-05-12T10:01:46.067Z,1.60
2019-05-12T10:02:44.058Z,1.60
2019-05-12T10:03:44.037Z,1.90
2019-05-12T10:04:44.066Z,1.80
2019-05-12T10:05:44.296Z,1.50
2019-05-12T10:06:44.492Z,1.80
2019-05-12T10:07:44.575Z,1.60
2019-05-12T10:08:43.930Z,1.60
2019-05-12T10:09:44.057Z,1.50
2019-05-12T10:10:46.765Z,1.40
2019-05-12T10:11:44.663Z,1.40
2019-05-12T10:12:46.186Z,1.30
2019-05-12T10:13:44.956Z,1.30
2019-05-12T10:14:45.757Z,1.30
2019-05-12T10:15:43.774Z,1.30
2019-05-12T10:16:45.569Z,1.10
2019-05-12T10:17:43.732Z,1.30
2019-05-12T10:18:51.117Z,1.40
2019-05-12T10:19:48.312Z,1.40
2019-05-12T10:20:44.262Z,1.30
2019-05-12T10:21:44.127Z,1.30
2019-05-12T10:22:43.926Z,1.60
2019-05-12T10:23:43.717Z,1.50
2019-05-12T10:24:55.117Z,1.50
2019-05-12T10:25:44.574Z,1.40
2019-05-12T10:26:49.236Z,1.30
2019-05-12T10:27:44.293Z,1.20
2019-05-12T10:28:51.530Z,1.40
2019-05-12T10:29:43.823Z,1.20
2019-05-12T10:30:47.142Z,1.30
2019-05-12T10:31:44.565Z,1.30
2019-05-12T10:32:43.713Z,1.20
2019-05-12T10:33:43.416Z,1.30
2019-05-12T10:34:44.370Z,1.50
2019-05-12T10:35:43.834Z,1.40
2019-05-12T10:36:44.860Z,1.30
2019-05-12T10:37:44.486Z,1.30
2019-05-12T10:38:44.318Z,1.50
2019-05-12T10:39:43.624Z,1.50
2019-05-12T10:40:44.408Z,1.40
2019-05-12T10:41:43.979Z,1.30
2019-05-12T10:42:47.786Z,1.50
2019-05-12T10:43:43.479Z,1.40
2019-05-12T10:44:43.703Z,1.50
2019-05-12T10:45:44.207Z,1.50
2019-05-12T10:46:55.329Z,1.40
2019-05-12T10:47:49.627Z,1.30
2019-05-12T10:48:44.274Z,1.50
2019-05-12T10:49:44.167Z,1.30
2019-05-12T10:50:44.283Z,1.30
2019-05-12T10:51:44.101Z,1.50
2019-05-12T10:52:44.109Z,1.50
2019-05-12T10:53:48.258Z,1.50
2019-05-12T10:54:43.503Z,1.30
2019-05-12T10:55:44.049Z,1.30
2019-05-12T10:56:43.819Z,1.40
2019-05-12T10:57:43.955Z,1.70
2019-05-12T10:58:44.009Z,1.40
2019-05-12T10:59:45.159Z,1.50
2019-05-12T11:00:46.766Z,1.50
2019-05-12T11:01:48.838Z,1.30
2019-05-12T11:02:42.767Z,1.10
2019-05-12T11:03:50.974Z,1.40
2019-05-12T11:04:43.989Z,1.20
2019-05-12T11:05:44.042Z,1.40
2019-05-12T11:06:44.773Z,1.30
2019-05-12T11:07:43.713Z,1.40
2019-05-12T11:08:47.331Z,1.50
2019-05-12T11:09:43.919Z,1.40
2019-05-12T11:10:43.023Z,1.40
2019-05-12T11:11:46.788Z,1.30
2019-05-12T11:12:44.967Z,1.30
2019-05-12T11:13:46.210Z,1.30
2019-05-12T11:14:43.947Z,1.30
2019-05-12T11:15:49.437Z,1.40
2019-05-12T11:16:44.603Z,1.40
2019-05-12T11:17:46.026Z,1.30
2019-05-12T11:18:43.663Z,1.40
2019-05-12T11:19:47.152Z,1.30
2019-05-12T11:20:44.889Z,1.50
2019-05-12T11:21:44.294Z,1.50
2019-05-12T11:22:43.918Z,1.70
2019-05-12T11:23:43.676Z,1.50
2019-05-12T11:24:44.380Z,1.40
2019-05-12T11:25:44.011Z,1.30
2019-05-12T11:26:43.288Z,1.30
2019-05-12T11:27:43.719Z,1.40
2019-05-12T11:28:42.722Z,1.20
2019-05-12T11:29:48.600Z,1.10
2019-05-12T11:30:49.332Z,1.20
2019-05-12T11:31:47.666Z,1.30
2019-05-12T11:32:48.621Z,1.20
2019-05-12T11:33:43.573Z,1.50
2019-05-12T11:34:44.308Z,1.60
2019-05-12T11:35:43.496Z,1.40
2019-05-12T11:36:43.761Z,1.50
2019-05-12T11:37:43.035Z,1.40
2019-05-12T11:38:44.203Z,1.50
2019-05-12T11:39:46.863Z,1.30
2019-05-12T11:40:43.798Z,1.40
2019-05-12T11:41:44.287Z,1.40
2019-05-12T11:42:54.572Z,1.70
2019-05-12T11:43:42.061Z,1.60
2019-05-12T11:44:45.071Z,1.80
2019-05-12T11:45:44.213Z,1.60
2019-05-12T11:46:44.139Z,1.50
2019-05-12T11:47:41.841Z,1.30
2019-05-12T11:48:46.317Z,1.30
2019-05-12T11:49:44.077Z,1.40
2019-05-12T11:50:47.885Z,1.30
2019-05-12T11:51:41.769Z,1.20
2019-05-12T11:52:45.919Z,1.20
2019-05-12T11:53:44.075Z,1.30
2019-05-12T11:54:47.151Z,1.40
2019-05-12T11:55:43.745Z,1.50
2019-05-12T11:56:48.782Z,1.30
2019-05-12T11:57:43.670Z,1.20
2019-05-12T11:58:49.624Z,1.20
2019-05-12T11:59:43.469Z,1.20
2019-05-12T12:00:43.953Z,1.10
2019-05-12T12:01:47.527Z,1.20
2019-05-12T12:02:43.645Z,1.20
2019-05-12T12:03:43.914Z,1.30
2019-05-12T12:04:43.507Z,1.10
2019-05-12T12:05:41.552Z,1.10
2019-05-12T12:06:43.688Z,1.10
2019-05-12T12:07:49.064Z,1.20
2019-05-12T12:08:41.419Z,1.30
2019-05-12T12:09:43.347Z,1.30
2019-05-12T12:10:41.403Z,1.30
2019-05-12T12:11:43.298Z,1.40
2019-05-12T12:12:47.149Z,1.20
2019-05-12T12:13:41.397Z,1.10
2019-05-12T12:14:46.221Z,1.10
2019-05-12T12:15:41.321Z,1.20
2019-05-12T12:16:49.816Z,1.10
2019-05-12T12:17:41.248Z,1.10
2019-05-12T12:18:48.593Z,1.10
2019-05-12T12:19:44.612Z,1.20
2019-05-12T12:20:41.187Z,1.20
2019-05-12T12:21:48.003Z,1.00
2019-05-12T12:22:43.005Z,1.30
2019-05-12T12:23:47.025Z,1.10
2019-05-12T12:24:43.513Z,1.30
2019-05-12T12:25:42.997Z,1.30
2019-05-12T12:26:41.060Z,1.50
2019-05-12T12:27:41.087Z,1.30
2019-05-12T12:28:43.408Z,1.30
2019-05-12T12:29:41.115Z,1.20
2019-05-12T12:30:40.977Z,1.20
2019-05-12T12:31:40.972Z,1.00
2019-05-12T12:32:40.947Z,1.20
2019-05-12T12:33:46.817Z,1.30
2019-05-12T12:34:40.908Z,1.20
2019-05-12T12:35:40.954Z,1.20
2019-05-12T12:36:40.969Z,1.20
2019-05-12T12:37:40.858Z,1.30
2019-05-12T12:38:40.859Z,1.00
2019-05-12T12:39:43.247Z,0.90
2019-05-12T12:40:40.879Z,1.30
2019-05-12T12:41:45.767Z,1.20
2019-05-12T12:42:46.247Z,1.20
2019-05-12T12:43:40.798Z,1.20
2019-05-12T12:44:40.723Z,1.00
2019-05-12T12:45:40.842Z,0.90
2019-05-12T12:46:40.679Z,1.10
2019-05-12T12:47:46.835Z,1.10
2019-05-12T12:48:40.728Z,1.60
2019-05-12T12:49:45.316Z,1.50
2019-05-12T12:50:40.584Z,1.20
2019-05-12T12:51:40.652Z,1.20
2019-05-12T12:52:44.819Z,1.30
2019-05-12T12:53:40.549Z,1.30
2019-05-12T12:54:40.570Z,1.20
2019-05-12T12:55:43.405Z,1.10
2019-05-12T12:56:40.578Z,1.10
2019-05-12T12:57:46.461Z,1.30
2019-05-12T12:58:40.458Z,1.20
2019-05-12T12:59:45.385Z,1.10
2019-05-12T13:00:47.158Z,1.20
2019-05-12T13:01:40.387Z,1.10
2019-05-12T13:02:45.061Z,1.00
2019-05-12T13:03:40.431Z,1.30
2019-05-12T13:04:45.919Z,1.10
2019-05-12T13:05:40.321Z,1.30
2019-05-12T13:06:40.338Z,1.00
2019-05-12T13:07:40.278Z,1.20
2019-05-12T13:08:40.267Z,1.10
2019-05-12T13:09:40.249Z,1.30
2019-05-12T13:10:45.740Z,1.00
2019-05-12T13:11:40.209Z,1.20
2019-05-12T13:12:40.292Z,1.20
2019-05-12T13:13:40.166Z,1.50
2019-05-12T13:14:40.203Z,1.30
2019-05-12T13:15:40.130Z,1.10
2019-05-12T13:16:40.212Z,1.20
2019-05-12T13:17:41.814Z,1.20
2019-05-12T13:18:40.233Z,1.30
2019-05-12T13:19:40.067Z,1.30
2019-05-12T13:20:40.151Z,1.20
2019-05-12T13:21:40.019Z,1.30
2019-05-12T13:22:40.065Z,1.30
2019-05-12T13:23:41.087Z,1.40
2019-05-12T13:24:39.971Z,1.10
2019-05-12T13:25:48.494Z,1.10
2019-05-12T13:26:39.930Z,1.30
2019-05-12T13:27:39.993Z,1.30
2019-05-12T13:28:39.897Z,1.40
2019-05-12T13:29:40.077Z,1.20
2019-05-12T13:30:46.155Z,1.30
2019-05-12T13:31:41.012Z,1.40
2019-05-12T13:32:39.919Z,1.60
2019-05-12T13:33:39.789Z,1.20
2019-05-12T13:34:39.841Z,1.30
2019-05-12T13:35:39.851Z,1.30
2019-05-12T13:36:39.729Z,1.10
2019-05-12T13:37:39.751Z,1.30
2019-05-12T13:38:40.637Z,1.20
2019-05-12T13:39:39.778Z,1.10
2019-05-12T13:40:39.658Z,1.20
2019-05-12T13:41:39.698Z,1.30
2019-05-12T13:42:39.621Z,1.30
2019-05-12T13:43:39.708Z,1.20
2019-05-12T13:44:40.838Z,1.40
2019-05-12T13:45:39.568Z,1.40
2019-05-12T13:46:40.642Z,1.30
2019-05-12T13:47:39.978Z,1.20
2019-05-12T13:48:39.516Z,1.20
2019-05-12T13:49:44.110Z,1.20
2019-05-12T13:50:39.453Z,1.50
2019-05-12T13:51:43.030Z,1.30
2019-05-12T13:52:39.409Z,1.30
2019-05-12T13:53:40.321Z,1.20
2019-05-12T13:54:39.392Z,1.40
2019-05-12T13:55:44.693Z,1.30
2019-05-12T13:56:39.327Z,1.30
2019-05-12T13:57:46.559Z,1.50
2019-05-12T13:58:43.010Z,1.20
2019-05-12T13:59:39.301Z,1.30
2019-05-12T14:00:41.393Z,1.50
2019-05-12T14:01:40.554Z,1.30
2019-05-12T14:02:39.208Z,1.60
2019-05-12T14:03:39.944Z,1.30
2019-05-12T14:04:39.169Z,1.30
2019-05-12T14:05:47.197Z,1.30
2019-05-12T14:06:39.139Z,1.50
2019-05-12T14:07:39.143Z,1.20
2019-05-12T14:08:39.096Z,1.20
2019-05-12T14:09:39.156Z,1.20
2019-05-12T14:10:44.734Z,1.60
2019-05-12T14:11:39.035Z,1.50
2019-05-12T14:12:39.086Z,1.70
2019-05-12T14:13:39.079Z,1.60
2019-05-12T14:14:38.995Z,1.30
2019-05-12T14:15:38.990Z,1.40
2019-05-12T14:16:44.564Z,1.40
2019-05-12T14:17:40.503Z,1.50
2019-05-12T14:18:38.907Z,1.50
2019-05-12T14:19:38.880Z,1.40
2019-05-12T14:20:38.929Z,1.50
2019-05-12T14:21:41.257Z,1.40
2019-05-12T14:22:41.649Z,1.50
2019-05-12T14:23:38.844Z,1.30
2019-05-12T14:24:42.147Z,1.20
2019-05-12T14:25:38.775Z,1.50
2019-05-12T14:26:39.297Z,1.50
2019-05-12T14:27:38.718Z,1.40
2019-05-12T14:28:39.581Z,1.40
2019-05-12T14:29:38.666Z,1.50
2019-05-12T14:30:41.284Z,1.30
2019-05-12T14:31:45.365Z,1.40
2019-05-12T14:32:38.628Z,1.40
2019-05-12T14:33:39.478Z,1.50
2019-05-12T14:34:38.578Z,1.20
2019-05-12T14:35:40.747Z,1.20
2019-05-12T14:36:38.546Z,1.10
2019-05-12T14:37:40.183Z,1.10
2019-05-12T14:38:38.496Z,1.30
2019-05-12T14:39:40.183Z,1.30
2019-05-12T14:40:38.479Z,1.30
2019-05-12T14:41:38.456Z,1.20
2019-05-12T14:42:39.944Z,1.30
2019-05-12T14:43:38.484Z,1.30
2019-05-12T14:44:44.903Z,1.30
2019-05-12T14:45:38.392Z,1.20
2019-05-12T14:46:40.093Z,1.60
2019-05-12T14:47:39.029Z,1.30
2019-05-12T14:48:40.173Z,1.30
2019-05-12T14:49:38.321Z,1.30
2019-05-12T14:50:38.258Z,1.40
2019-05-12T14:51:38.326Z,1.30
2019-05-12T14:52:38.207Z,1.30
2019-05-12T14:53:39.725Z,1.20
2019-05-12T14:54:38.175Z,1.30
2019-05-12T14:55:38.145Z,1.40
2019-05-12T14:56:38.127Z,1.30
2019-05-12T14:57:39.476Z,1.50
2019-05-12T14:58:38.077Z,1.40
2019-05-12T14:59:41.127Z,1.30
2019-05-12T15:00:38.028Z,1.40
2019-05-12T15:01:52.149Z,1.60
2019-05-12T15:02:37.998Z,1.50
2019-05-12T15:03:42.402Z,1.50
2019-05-12T15:04:37.947Z,1.50
2019-05-12T15:05:41.258Z,1.50
2019-05-12T15:06:37.916Z,1.60
2019-05-12T15:07:42.503Z,1.50
2019-05-12T15:08:40.282Z,1.40
2019-05-12T15:09:37.946Z,1.50